富士山静岡空港METAR/TAF(約33km東):

RJNS 201200Z 26022KT 9999 FEW030 BKN/// 07/M07 Q1013

TAF RJNS 201105Z 2012/2118 27014KT 9999 FEW030


風向風力(Windy.com):
スマホでの閲覧には、アプリ版Windy(Android/iOS)が適切です。